Accueil
METAR-TAF:

METAR-TAF

Aéroports :

Aéroport de Bologne-Borgo Panigale

Bologne, Italie

latitude: 44-32N, longitude: 011-18E, altitude: 36 m

Observation

Le bulletin a été fait il y a 21 minutes, à 05:20 UTC
Vent 5 kt de sud/sud-ouest
Température 3°C
Humidité 93%
Pression 1019 hPa
Visibilité 10 km ou plus
pas de nuages en-dessous de 1500 mètres et pas de cumulonimbus.

METAR: LIPE 270520Z 20005KT CAVOK 03/02 Q1019

Heure: 06:41 (05:41 UTC)

Prévision

Le bulletin a été fait il y a 41 minutes, à 05:00 UTC
Prévision valable du 27 à 06 UTC au 28 à 06 UTC
Vent 4 kt de direction variable
Visibilité: 6000 m
Temporairement
du 27 à 06 UTC au 27 à 08 UTC
Visibilité: 0600 m
Nuages fragmentés à une hauteur de 400 ft
brouillard
Temporairement
du 27 à 20 UTC au 28 à 06 UTC
Visibilité: 1200 m
bancs de brouillard

TAF: LIPE 270500Z 2706/2806 VRB04KT 6000 NSC TEMPO 2706/2708 0600 FG BKN004 TEMPO 2720/2806 1200 BCFG

Observations et prévisions météorologiques de plus de 4000 aéroports (messages METAR et TAF).

Les stations disponibles sont représentées par des disques jaunes et rouges sur la carte.

Passer la souris dessus pour voir le nom de la station.

Cliquer dessus pour voir les observations et prévisions météorologiques.

Pour changer de carte: cliquez sur les boutons verts avec une croix noire pour zoomer, sur le bouton vert avec un tiret pour effectuer un zoom arrière, ou sur les flèches vertes pour les cartes adjacentes.


METAR-TAF: